Content
SEND FEEDBACK

Daily
Averages
Monthly
Summary
United States of America

ELKHART, KANSAS


Home > North America > United States > Kansas
Elevation: 358 feet     Latitude: 37 02N     Longitude: 102 04W

WEATHER
 
SELECT A DAY
Number of Records: 441,422;   Date Range: 1/1/95 - 9/29/14
 
SHARE

PRINT THIS DATA

[ ← Previous Day ]
WEATHER ALMANAC - FEBRUARY 13, 2013
[ Next Day → ]
[ °C ]   °F
Weather ElementAverageHighLow
Temperature36.4 °F54 °F (4:08 pm)21.9 °F (6:08 am)
Dewpoint11.2 °F17.1 °F (10:08 pm)6.1 °F (5:28 am)
Humidity37.6 %53 % (6:08 am)20 % (3:08 pm)
Wind Speed6.1 mph10.4 mph (5:28 am)
Weather ElementAverage
Wind DirectionWSW (249 °)

Weather ElementTotal
Precipitation---
Heating Degree Days27.1 (Base 65)
Averaged from 71 records on February 13, 2013
WEATHER CONDITIONS BREAKOUT
WIND DIRECTION BREAKOUT
WEATHER BY HOUR - FEBRUARY 13, 2013
[ °C ]   °F
Local TimeTemperatureDewpointHumidityBarometerVisibilityWind DirectionWind SpeedGust SpeedPrecipitationEventsConditions
12:28 AM25.0 °F9.1 °F51 %West (270°)8.1 mph
12:48 AM25.0 °F9.1 °F51 %West (260°)8.1 mph
1:08 AM25.0 °F9.1 °F51 %West (260°)8.1 mph
1:28 AM25.0 °F9.1 °F51 %West (260°)8.1 mph
1:48 AM26.1 °F9.1 °F49 %West (260°)8.1 mph
2:08 AM27.0 °F9.1 °F47 %West (260°)6.9 mph
2:28 AM26.1 °F9.1 °F49 %West (260°)8.1 mph
2:48 AM26.1 °F9.1 °F49 %West (260°)6.9 mph
3:08 AM26.1 °F9.1 °F49 %West (260°)8.1 mph
3:28 AM26.1 °F8.1 °F47 %West (270°)9.2 mph
3:48 AM24.1 °F8.1 °F51 %West (270°)8.1 mph
4:08 AM25.0 °F7.2 °F47 %West (280°)9.2 mph
4:28 AM24.1 °F7.2 °F49 %West (280°)9.2 mph
4:48 AM24.1 °F7.2 °F49 %West (280°)6.9 mph
5:08 AM24.1 °F7.2 °F49 %West (280°)6.9 mph
5:28 AM23.0 °F6.1 °F48 %West (280°)10.4 mph
5:48 AM23.0 °F7.2 °F51 %West (270°)9.2 mph
6:08 AM21.9 °F7.2 °F53 %West (270°)6.9 mph
6:28 AM21.9 °F6.1 °F51 %West (270°)8.1 mph
6:48 AM23.0 °F6.1 °F48 %West (280°)8.1 mph
7:08 AM24.1 °F6.1 °F46 %WNW (290°)5.8 mph
7:28 AM23.0 °F7.2 °F51 %West (270°)6.9 mph
7:48 AM24.1 °F6.1 °F46 %WNW (290°)5.8 mph
8:08 AM24.1 °F7.2 °F49 %WNW (290°)6.9 mph
8:28 AM25.0 °F9.1 °F51 %West (270°)5.8 mph
8:48 AM26.1 °F8.1 °F47 %West (270°)9.2 mph
9:08 AM28.0 °F11.1 °F49 %West (280°)8.1 mph
9:28 AM30.9 °F12.0 °F46 %WNW (290°)8.1 mph
9:48 AM34.0 °F11.1 °F39 %NW (320°)8.1 mph
10:08 AM36.0 °F12.0 °F37 %NW (310°)5.8 mph
10:28 AM37.9 °F12.0 °F35 %NNW (330°)4.6 mph
10:48 AM39.9 °F14.0 °F35 %West (260°)5.8 mph
11:08 AM41.0 °F15.1 °F35 %West (280°)5.8 mph
11:28 AM42.1 °F14.0 °F32 %WSW (240°)4.6 mph
11:48 AM44.1 °F13.1 °F29 %SW (220°)4.6 mph
12:08 PM45.0 °F12.0 °F26 %SW (230°)6.9 mph
12:28 PM46.0 °F12.0 °F25 %South (190°)4.6 mph
12:48 PM48.0 °F12.0 °F24 %SW (230°)3.5 mph
1:08 PM48.9 °F12.0 °F23 %WSW (250°)5.8 mph
1:28 PM50.0 °F13.1 °F23 %West (280°)6.9 mph
1:48 PM50.0 °F12.0 °F22 %West (280°)6.9 mph
2:08 PM50.0 °F12.0 °F22 %WNW (290°)8.1 mph
2:28 PM52.0 °F13.1 °F21 %NW (320°)3.5 mph
2:48 PM52.0 °F13.1 °F21 %West (270°)3.5 mph
3:08 PM53.1 °F13.1 °F20 %West (270°)5.8 mph
3:28 PM53.1 °F13.1 °F20 %WNW (300°)6.9 mph
3:48 PM53.1 °F13.1 °F20 %West (260°)2.3 mph
4:08 PM54.0 °F14.0 °F21 %WNW (290°)2.3 mph
4:28 PM54.0 °F14.0 °F21 %WNW (290°)4.6 mph
4:48 PM54.0 °F14.0 °F21 %West (280°)3.5 mph
5:08 PM53.1 °F14.0 °F21 %NNW (330°)2.3 mph
5:28 PM53.1 °F13.1 °F20 %NNE (20°)1.2 mph
5:48 PM53.1 °F14.0 °F21 %North (350°)4.6 mph
6:08 PM51.1 °F13.1 °F22 %NNE (20°)4.6 mph
6:28 PM48.0 °F12.0 °F24 %NNE (20°)2.3 mph
6:48 PM42.1 °F10.0 °F27 %ESE (120°)4.6 mph
7:08 PM39.9 °F12.0 °F32 %South (170°)4.6 mph
7:28 PM37.0 °F10.0 °F33 %South (170°)4.6 mph
7:48 PM37.0 °F10.0 °F33 %South (190°)5.8 mph
8:08 PM37.0 °F12.0 °F36 %SSW (210°)3.5 mph
8:28 PM37.9 °F12.0 °F35 %SSW (210°)2.3 mph
8:48 PM37.9 °F13.1 °F36 %South (190°)2.3 mph
9:08 PM37.9 °F13.1 °F36 %South (190°)3.5 mph
9:28 PM37.0 °F14.0 °F39 %SW (220°)5.8 mph
9:48 PM39.0 °F16.2 °F40 %SSW (210°)4.6 mph
10:08 PM37.9 °F17.1 °F43 %SW (220°)5.8 mph
10:28 PM37.0 °F16.2 °F43 %SW (230°)6.9 mph
10:48 PM35.1 °F15.1 °F44 %WSW (240°)8.1 mph
11:08 PM35.1 °F15.1 °F44 %WSW (240°)6.9 mph
11:28 PM33.1 °F15.1 °F48 %WSW (250°)5.8 mph
11:48 PM33.1 °F15.1 °F48 %West (260°)6.9 mph
Hourly data recorded from KEHA, located miles away from Elkhart, Kansas







STORIES FROM OUR PARTNERS